Time;durP1;ratioP1;P1;durP2;ratioP2;P2;SDS_P1;SDS_P2;PMS_P1;PMS_P2;Temp;Humidity;BMP_temperature;BMP_pressure;BME280_temperature;BME280_humidity;BME280_pressure;Samples;Min_cycle;Max_cycle;Signal;HPM_P1;HPM_P2
2022/10/18 06:22:52;;;;;;;5.67;3.00;;;11.60;99.90;;;;;;5129905;27;20530;-83
2022/10/18 06:25:17;;;;;;;6.67;3.33;;;11.60;99.90;;;;;;5095069;28;20635;-82
2022/10/18 06:27:43;;;;;;;7.03;2.70;;;11.70;99.90;;;;;;5095718;28;20244;-82
2022/10/18 06:30:09;;;;;;;4.97;2.93;;;11.70;99.90;;;;;;5096623;28;20260;-83
2022/10/18 06:32:35;;;;;;;7.97;2.43;;;11.80;99.90;;;;;;5096930;28;20172;-83
2022/10/18 06:35:00;;;;;;;5.03;2.57;;;11.80;99.90;;;;;;5096313;28;20187;-83
2022/10/18 06:37:29;;;;;;;9.13;3.00;;;11.90;99.90;;;;;;5096026;28;20176;-83
2022/10/18 06:40:54;;;;;;;6.97;2.50;;;11.90;99.90;;;;;;5132094;27;20530;-83
2022/10/18 06:44:55;;;;;;;6.03;2.50;;;12.00;99.90;;;;;;5134762;27;20527;-81
2022/10/18 06:48:54;;;;;;;4.17;2.10;;;12.10;99.90;;;;;;5127201;27;20486;-84
2022/10/18 06:52:54;;;;;;;3.57;2.30;;;12.30;99.90;;;;;;5133077;27;20476;-82
2022/10/18 06:56:56;;;;;;;10.37;2.23;;;12.30;99.90;;;;;;5134312;27;20891;-84
2022/10/18 07:35:25;;;;;;;5.67;2.83;;;13.00;99.90;;;;;;5132639;27;20484;-82
2022/10/18 07:37:50;;;;;;;3.17;2.20;;;13.10;99.90;;;;;;5099458;28;20598;-83
2022/10/18 07:40:16;;;;;;;4.10;2.23;;;13.20;99.90;;;;;;5101197;28;20721;-83
2022/10/18 07:42:42;;;;;;;16.10;3.50;;;13.40;99.90;;;;;;5100779;28;20184;-82
2022/10/18 07:45:08;;;;;;;3.73;2.37;;;13.60;99.90;;;;;;5101201;28;20180;-83
2022/10/18 07:47:33;;;;;;;5.97;2.27;;;13.80;99.90;;;;;;5099148;28;20203;-83
2022/10/18 07:49:59;;;;;;;4.87;2.37;;;14.00;99.90;;;;;;5100932;28;20202;-83
2022/10/18 07:52:25;;;;;;;5.73;2.67;;;14.00;99.90;;;;;;5098267;28;20179;-83
2022/10/18 07:54:50;;;;;;;5.73;2.80;;;14.10;99.90;;;;;;5095268;28;20210;-84
2022/10/18 07:57:16;;;;;;;5.13;2.60;;;14.30;99.90;;;;;;5098664;28;20182;-83
2022/10/18 07:59:45;;;;;;;5.63;2.40;;;14.50;99.90;;;;;;5100046;28;20674;-84
2022/10/18 08:02:10;;;;;;;3.93;2.30;;;14.60;99.90;;;;;;5097358;28;20180;-82
2022/10/18 08:04:36;;;;;;;4.33;2.30;;;14.50;99.90;;;;;;5095992;28;20737;-83
2022/10/18 08:07:01;;;;;;;4.67;2.63;;;14.50;99.90;;;;;;5095979;28;20634;-84
2022/10/18 08:09:27;;;;;;;4.23;2.17;;;14.50;99.90;;;;;;5098008;28;20701;-83
2022/10/18 08:11:53;;;;;;;3.90;2.17;;;14.40;99.90;;;;;;5097231;28;20180;-82
2022/10/18 08:14:19;;;;;;;2.60;2.07;;;14.40;99.90;;;;;;5097482;28;20265;-83
2022/10/18 08:16:44;;;;;;;4.47;2.20;;;14.30;99.90;;;;;;5096496;28;20527;-83
2022/10/18 08:19:10;;;;;;;7.77;3.03;;;14.20;99.90;;;;;;5097317;28;20249;-82
2022/10/18 08:21:36;;;;;;;4.83;2.60;;;14.20;99.90;;;;;;5097224;28;20236;-83
2022/10/18 08:24:01;;;;;;;6.57;2.77;;;14.20;99.90;;;;;;5095881;28;20180;-83
2022/10/18 08:26:27;;;;;;;7.07;2.40;;;14.30;99.90;;;;;;5096276;28;20208;-84
2022/10/18 08:28:53;;;;;;;4.00;2.33;;;14.40;99.90;;;;;;5097227;28;20299;-83
2022/10/18 08:31:19;;;;;;;3.70;2.10;;;14.40;99.90;;;;;;5096235;28;20186;-84
2022/10/18 08:33:46;;;;;;;6.87;3.53;;;14.40;99.90;;;;;;5097264;28;20217;-83
2022/10/18 08:36:13;;;;;;;6.43;3.13;;;14.50;99.90;;;;;;5097544;28;20204;-83
2022/10/18 08:38:41;;;;;;;4.93;2.73;;;14.60;99.90;;;;;;5099823;28;20189;-84
2022/10/18 08:41:25;;;;;;;7.80;3.13;;;14.70;99.90;;;;;;5099865;28;20181;-83
2022/10/18 08:44:04;;;;;;;3.77;2.70;;;14.70;99.90;;;;;;5101333;28;20200;-83
2022/10/18 08:46:31;;;;;;;5.63;3.27;;;14.70;99.90;;;;;;5090927;28;20222;-82
2022/10/18 08:48:58;;;;;;;5.33;2.97;;;14.70;99.90;;;;;;5096299;28;20213;-79
2022/10/18 08:51:44;;;;;;;3.90;2.60;;;14.80;99.90;;;;;;5101289;28;20176;-79
2022/10/18 08:54:36;;;;;;;4.83;2.43;;;14.90;99.90;;;;;;5096907;28;20262;-83
2022/10/18 08:57:09;;;;;;;3.73;2.43;;;15.00;99.90;;;;;;5082837;28;20172;-83
2022/10/18 08:59:39;;;;;;;2.60;2.10;;;15.10;99.90;;;;;;5083309;28;20247;-84
2022/10/18 09:02:41;;;;;;;6.30;3.10;;;15.20;99.90;;;;;;5083284;28;20212;-82
2022/10/18 09:05:19;;;;;;;4.90;2.70;;;15.30;99.90;;;;;;5083060;28;20248;-84
2022/10/18 09:08:08;;;;;;;5.90;2.73;;;15.50;99.90;;;;;;5080937;28;20193;-83
2022/10/18 09:10:48;;;;;;;7.10;2.90;;;15.70;99.90;;;;;;5082177;28;20280;-83
2022/10/18 09:13:27;;;;;;;3.70;2.57;;;15.90;99.90;;;;;;5083781;28;20750;-82
2022/10/18 09:16:01;;;;;;;4.13;2.60;;;16.40;99.90;;;;;;5081668;28;20225;-83
2022/10/18 09:18:47;;;;;;;4.63;2.80;;;17.40;99.90;;;;;;5081754;28;20174;-84
2022/10/18 09:21:18;;;;;;;4.27;2.43;;;18.30;99.90;;;;;;5081179;28;20320;-82
2022/10/18 09:23:53;;;;;;;5.30;3.23;;;19.20;99.90;;;;;;5083208;28;20186;-85
2022/10/18 09:26:23;;;;;;;7.43;2.87;;;19.50;99.90;;;;;;5082309;28;20187;-85
2022/10/18 09:29:27;;;;;;;6.73;3.07;;;19.60;99.90;;;;;;5082071;28;20203;-83
2022/10/18 09:32:21;;;;;;;5.90;2.70;;;19.80;99.90;;;;;;5081174;28;20196;-82
2022/10/18 09:34:50;;;;;;;5.50;3.00;;;20.60;99.90;;;;;;5075706;28;20232;-84
2022/10/18 09:37:18;;;;;;;4.13;2.47;;;21.60;99.90;;;;;;5084384;28;20224;-83
2022/10/18 09:39:47;;;;;;;3.73;2.80;;;22.20;99.90;;;;;;5084664;28;20596;-83
2022/10/18 09:42:25;;;;;;;5.53;2.53;;;22.70;99.90;;;;;;5085556;28;20187;-85
2022/10/18 09:45:07;;;;;;;3.87;2.43;;;23.30;99.90;;;;;;5084660;28;20184;-85
2022/10/18 09:47:38;;;;;;;4.40;2.20;;;23.90;99.90;;;;;;5086516;28;20657;-84
2022/10/18 09:50:22;;;;;;;6.53;2.43;;;24.20;99.90;;;;;;5088638;28;20529;-84
2022/10/18 09:52:54;;;;;;;4.00;2.43;;;24.40;99.90;;;;;;5081370;28;20164;-83
2022/10/18 09:55:29;;;;;;;4.80;2.50;;;24.50;99.90;;;;;;5078695;28;20285;-83
2022/10/18 09:58:01;;;;;;;5.83;2.53;;;24.70;99.90;;;;;;5079504;28;20172;-82
2022/10/18 10:00:47;;;;;;;7.27;2.33;;;25.10;99.90;;;;;;5080809;28;20249;-84
2022/10/18 10:03:13;;;;;;;5.40;1.83;;;25.10;99.90;;;;;;5080630;28;20162;-83
2022/10/18 10:05:39;;;;;;;3.83;2.03;;;24.80;99.90;;;;;;5078588;28;20205;-84
2022/10/18 10:08:05;;;;;;;3.53;2.20;;;24.40;99.90;;;;;;5081733;28;20651;-83
2022/10/18 10:10:33;;;;;;;8.17;2.53;;;24.30;99.90;;;;;;5080843;28;20194;-86
2022/10/18 10:13:14;;;;;;;10.00;2.77;;;24.10;99.90;;;;;;5083021;28;20168;-85
2022/10/18 10:15:59;;;;;;;3.53;2.30;;;24.10;99.90;;;;;;5082989;28;20185;-85
2022/10/18 10:18:32;;;;;;;2.57;2.10;;;24.40;99.90;;;;;;5080810;28;20185;-85
2022/10/18 10:21:00;;;;;;;10.10;2.40;;;24.40;99.90;;;;;;5080765;28;20173;-84
2022/10/18 10:23:37;;;;;;;5.07;2.20;;;24.80;99.90;;;;;;5080810;28;20248;-85
2022/10/18 10:26:22;;;;;;;3.07;2.37;;;25.30;99.90;;;;;;5082496;28;20525;-83
2022/10/18 10:28:48;;;;;;;6.50;2.30;;;25.20;99.90;;;;;;5080387;28;20274;-82
2022/10/18 10:31:36;;;;;;;3.43;2.30;;;25.10;99.90;;;;;;5080711;28;20683;-83
2022/10/18 10:34:14;;;;;;;3.70;2.30;;;24.80;99.90;;;;;;5078813;28;20218;-84
2022/10/18 10:36:48;;;;;;;3.17;2.60;;;25.00;99.90;;;;;;5080771;28;20178;-82
2022/10/18 10:39:17;;;;;;;3.03;2.30;;;25.20;99.90;;;;;;5081028;28;20214;-84
2022/10/18 10:41:47;;;;;;;4.30;1.90;;;25.10;99.90;;;;;;5080306;28;20709;-82
2022/10/18 10:44:18;;;;;;;4.57;2.20;;;24.90;99.90;;;;;;5080398;28;20204;-83
2022/10/18 10:46:45;;;;;;;7.73;2.67;;;25.10;99.90;;;;;;5080119;28;20278;-85
2022/10/18 10:49:23;;;;;;;4.63;2.00;;;24.80;99.90;;;;;;5080297;28;20222;-84
2022/10/18 10:52:20;;;;;;;5.47;1.83;;;24.90;99.90;;;;;;5079549;28;20172;-82
2022/10/18 10:54:46;;;;;;;6.50;2.03;;;25.00;99.90;;;;;;5078016;28;20193;-82
2022/10/18 10:57:11;;;;;;;2.83;1.90;;;25.30;99.90;;;;;;5078628;28;20189;-84
2022/10/18 10:59:41;;;;;;;5.00;1.97;;;25.90;99.90;;;;;;5080638;28;20670;-83
2022/10/18 11:02:13;;;;;;;3.50;1.93;;;26.10;99.90;;;;;;5079612;28;20249;-84
2022/10/18 11:04:40;;;;;;;6.57;2.07;;;26.20;99.90;;;;;;5080451;28;20284;-83
2022/10/18 11:07:10;;;;;;;3.07;2.30;;;26.70;99.90;;;;;;5079562;28;20173;-84
2022/10/18 11:09:58;;;;;;;6.00;2.10;;;26.60;99.90;;;;;;5079759;28;20220;-84
2022/10/18 11:12:24;;;;;;;2.53;1.80;;;26.90;99.90;;;;;;5080321;28;20492;-83
2022/10/18 11:15:09;;;;;;;5.37;2.10;;;27.00;99.90;;;;;;5081541;28;20688;-84
2022/10/18 11:17:59;;;;;;;6.60;1.80;;;26.90;99.90;;;;;;5080042;28;20181;-83
2022/10/18 11:20:31;;;;;;;5.73;2.00;;;26.90;99.90;;;;;;5080139;28;20205;-83
2022/10/18 11:23:11;;;;;;;3.83;1.80;;;26.70;99.90;;;;;;5079662;28;20174;-84
2022/10/18 11:25:54;;;;;;;5.27;1.87;;;27.00;99.90;;;;;;5082273;28;20158;-84
2022/10/18 11:28:22;;;;;;;4.10;2.20;;;26.90;99.90;;;;;;5081324;28;20185;-83
2022/10/18 11:30:55;;;;;;;2.90;1.87;;;26.90;99.90;;;;;;5084740;28;20178;-84
2022/10/18 11:33:49;;;;;;;6.13;2.40;;;26.80;99.40;;;;;;5085839;28;20174;-82
2022/10/18 11:36:26;;;;;;;3.13;2.20;;;26.60;99.20;;;;;;5096299;28;20178;-83
2022/10/18 11:39:02;;;;;;;4.63;1.90;;;27.00;99.00;;;;;;5090117;28;20667;-84
2022/10/18 11:41:52;;;;;;;4.30;2.03;;;27.30;99.90;;;;;;5081369;28;20185;-83
2022/10/18 11:44:35;;;;;;;6.30;1.70;;;27.40;98.10;;;;;;5080244;28;20199;-84
2022/10/18 11:47:17;;;;;;;3.07;1.77;;;26.50;99.10;;;;;;5088472;28;20179;-81
2022/10/18 11:49:45;;;;;;;5.83;2.13;;;26.30;99.70;;;;;;5080874;28;20186;-84
2022/10/18 11:52:14;;;;;;;4.60;2.67;;;26.80;99.90;;;;;;5079951;28;20192;-87
2022/10/18 11:55:02;;;;;;;4.67;2.40;;;27.10;98.40;;;;;;5079163;28;20551;-83
2022/10/18 11:57:56;;;;;;;4.33;2.10;;;27.20;97.70;;;;;;5078522;28;20171;-87
2022/10/18 12:00:22;;;;;;;3.17;1.60;;;27.30;97.90;;;;;;5077397;28;20230;-84
2022/10/18 12:03:03;;;;;;;2.03;1.73;;;27.30;98.00;;;;;;5078569;28;20173;-84
2022/10/18 12:05:30;;;;;;;3.73;2.00;;;27.10;97.80;;;;;;5077245;28;20283;-85
2022/10/18 12:08:20;;;;;;;1.83;1.70;;;27.20;97.40;;;;;;5076192;28;20177;-84
2022/10/18 12:10:55;;;;;;;9.40;2.30;;;27.80;96.60;;;;;;5074651;28;20174;-83
2022/10/18 12:13:44;;;;;;;3.93;2.10;;;27.50;96.60;;;;;;5081389;28;20172;-84
2022/10/18 12:16:11;;;;;;;3.77;2.03;;;27.50;96.20;;;;;;5079964;28;20165;-84
2022/10/18 12:18:50;;;;;;;3.17;1.70;;;27.80;95.80;;;;;;5079911;28;20199;-82
2022/10/18 12:21:20;;;;;;;2.43;1.83;;;28.00;96.20;;;;;;5082037;28;20171;-84
2022/10/18 12:23:57;;;;;;;6.20;2.30;;;27.20;95.10;;;;;;5085516;28;20212;-83
2022/10/18 12:26:24;;;;;;;6.37;1.77;;;26.60;96.80;;;;;;5083369;28;20149;-84
2022/10/18 12:29:20;;;;;;;4.73;1.87;;;26.60;97.80;;;;;;5081916;28;20278;-81
2022/10/18 12:31:53;;;;;;;6.37;1.93;;;27.10;98.00;;;;;;5081218;28;20168;-84
2022/10/18 12:34:37;;;;;;;7.57;2.37;;;27.90;97.60;;;;;;5080746;28;20222;-84
2022/10/18 12:37:44;;;;;;;5.07;2.00;;;27.90;96.20;;;;;;5080619;28;20173;-85
2022/10/18 12:40:19;;;;;;;4.03;1.90;;;27.80;94.50;;;;;;5070272;28;20214;-83
2022/10/18 12:42:48;;;;;;;5.00;1.70;;;27.60;94.70;;;;;;5081661;28;20177;-83
2022/10/18 12:45:33;;;;;;;4.20;2.00;;;27.60;95.00;;;;;;5081215;28;20212;-84
2022/10/18 12:48:04;;;;;;;5.67;1.77;;;28.30;94.80;;;;;;5080888;28;20166;-84
2022/10/18 12:50:39;;;;;;;3.67;1.73;;;28.00;94.60;;;;;;5081628;28;20190;-85
2022/10/18 12:53:16;;;;;;;3.57;1.90;;;27.20;94.50;;;;;;5083052;28;20156;-83
2022/10/18 12:55:45;;;;;;;4.67;2.00;;;26.70;95.50;;;;;;5081959;28;20677;-84
2022/10/18 12:58:14;;;;;;;7.80;2.00;;;25.90;96.50;;;;;;5081572;28;20258;-84
2022/10/18 13:00:42;;;;;;;4.80;2.17;;;24.80;96.90;;;;;;5081733;28;20172;-83
2022/10/18 13:03:08;;;;;;;6.80;2.10;;;23.90;99.50;;;;;;5081626;28;20179;-83
2022/10/18 13:05:46;;;;;;;6.20;1.90;;;23.40;99.30;;;;;;5080648;28;20178;-82
2022/10/18 13:08:33;;;;;;;3.07;1.73;;;22.90;99.90;;;;;;5079934;28;20178;-85
2022/10/18 13:11:08;;;;;;;5.90;2.67;;;22.70;99.90;;;;;;5077473;28;20617;-87
2022/10/18 13:13:45;;;;;;;2.73;2.20;;;22.50;99.90;;;;;;5079914;28;20213;-82
2022/10/18 13:16:32;;;;;;;9.97;6.70;;;22.30;99.90;;;;;;5081493;28;20242;-84
2022/10/18 13:19:21;;;;;;;17.53;6.60;;;22.00;99.90;;;;;;5081473;28;20690;-82
2022/10/18 13:22:18;;;;;;;8.67;5.80;;;21.70;99.90;;;;;;5060520;28;20224;-84
2022/10/18 13:25:11;;;;;;;2.83;2.53;;;21.50;99.90;;;;;;5081735;28;20239;-83
2022/10/18 13:27:49;;;;;;;5.53;2.40;;;21.20;99.90;;;;;;5080259;28;20174;-85
2022/10/18 13:30:36;;;;;;;4.23;2.23;;;21.00;99.90;;;;;;5080800;28;20193;-84
2022/10/18 13:33:14;;;;;;;4.10;2.20;;;21.00;99.90;;;;;;5080509;28;20182;-83
2022/10/18 13:35:56;;;;;;;7.30;2.40;;;20.80;99.90;;;;;;5080380;28;20257;-86
2022/10/18 13:38:46;;;;;;;5.33;2.43;;;20.70;99.90;;;;;;5081161;28;20166;-85
2022/10/18 13:41:18;;;;;;;6.10;2.83;;;20.70;99.90;;;;;;5079692;28;20658;-85
2022/10/18 13:43:55;;;;;;;6.33;2.53;;;20.50;99.90;;;;;;5080574;28;20209;-83
2022/10/18 13:46:44;;;;;;;10.63;2.60;;;20.30;99.90;;;;;;5081046;28;20172;-84
2022/10/18 13:49:15;;;;;;;5.73;2.07;;;20.10;99.90;;;;;;5085559;28;20200;-83
2022/10/18 13:52:18;;;;;;;5.33;2.70;;;20.10;99.90;;;;;;5081915;28;20170;-83
2022/10/18 13:55:11;;;;;;;5.37;2.10;;;20.00;99.90;;;;;;5081069;28;20646;-84
2022/10/18 13:57:46;;;;;;;4.80;2.17;;;20.00;99.90;;;;;;5079631;28;20258;-84
2022/10/18 14:00:14;;;;;;;9.93;2.33;;;19.90;99.90;;;;;;5079725;28;20674;-84
2022/10/18 14:03:21;;;;;;;7.97;2.30;;;19.90;99.90;;;;;;5087415;28;20208;-84
2022/10/18 14:05:51;;;;;;;5.13;2.50;;;19.80;99.90;;;;;;5088459;28;20179;-81
2022/10/18 14:08:33;;;;;;;4.23;2.30;;;19.70;99.90;;;;;;5098452;28;20188;-82
2022/10/18 14:11:32;;;;;;;4.73;2.40;;;19.60;99.90;;;;;;5098714;28;20165;-81
2022/10/18 14:14:01;;;;;;;4.83;2.17;;;19.60;99.90;;;;;;5076818;28;20246;-83
2022/10/18 14:16:54;;;;;;;5.57;1.90;;;19.50;99.90;;;;;;5079642;28;20227;-84
2022/10/18 14:19:28;;;;;;;3.60;2.00;;;19.40;99.90;;;;;;5080760;28;20213;-84
2022/10/18 14:22:09;;;;;;;4.23;2.77;;;19.40;99.90;;;;;;5081336;28;20184;-85
2022/10/18 14:24:39;;;;;;;5.23;2.60;;;19.40;99.90;;;;;;5079628;28;20291;-87
2022/10/18 14:27:35;;;;;;;6.33;3.57;;;19.50;99.90;;;;;;5080475;28;20165;-85
2022/10/18 14:30:15;;;;;;;7.40;3.57;;;19.60;99.90;;;;;;5072256;28;20208;-83
2022/10/18 14:32:50;;;;;;;8.20;2.23;;;19.70;99.90;;;;;;5082963;28;20526;-85
2022/10/18 14:35:21;;;;;;;4.47;2.03;;;19.80;99.90;;;;;;5083098;28;20188;-84
2022/10/18 14:37:49;;;;;;;7.87;2.73;;;19.70;99.90;;;;;;5082281;28;20509;-84
2022/10/18 14:40:43;;;;;;;6.17;2.57;;;19.70;99.90;;;;;;5082136;28;20764;-83
2022/10/18 14:43:14;;;;;;;5.37;2.10;;;19.60;99.90;;;;;;5071299;28;20234;-85
2022/10/18 14:45:41;;;;;;;8.70;2.40;;;19.50;99.90;;;;;;5077657;28;20191;-82
2022/10/18 14:48:20;;;;;;;7.70;2.10;;;19.40;99.90;;;;;;5076633;28;20222;-83
2022/10/18 14:50:49;;;;;;;7.07;2.10;;;19.30;99.90;;;;;;5078125;28;20201;-84
2022/10/18 14:53:23;;;;;;;11.73;2.73;;;19.30;99.90;;;;;;5078795;28;20173;-82
2022/10/18 14:56:06;;;;;;;10.00;2.10;;;19.20;99.90;;;;;;5078094;28;20221;-85
2022/10/18 14:58:33;;;;;;;4.13;2.20;;;19.10;99.90;;;;;;5077599;28;20180;-85
2022/10/18 15:00:59;;;;;;;8.40;2.17;;;19.10;99.90;;;;;;5079371;28;20180;-81
2022/10/18 15:03:27;;;;;;;3.83;1.97;;;19.00;99.90;;;;;;5076471;28;20183;-83
2022/10/18 15:05:58;;;;;;;5.47;2.23;;;19.10;99.90;;;;;;5077698;28;20230;-82
2022/10/18 15:08:29;;;;;;;4.00;2.27;;;19.10;99.90;;;;;;5076831;28;20167;-84
2022/10/18 15:10:55;;;;;;;6.63;2.30;;;19.00;99.90;;;;;;5076628;28;20165;-85
2022/10/18 15:13:23;;;;;;;5.33;2.30;;;19.10;99.90;;;;;;5078276;28;20183;-85
2022/10/18 15:15:50;;;;;;;5.70;2.27;;;19.20;99.90;;;;;;5075420;28;20549;-85
2022/10/18 15:18:22;;;;;;;9.17;2.50;;;19.20;99.90;;;;;;5076164;28;20184;-85
2022/10/18 15:21:06;;;;;;;5.20;2.63;;;19.30;99.90;;;;;;5076920;28;20180;-85
2022/10/18 15:23:32;;;;;;;3.50;1.87;;;19.40;99.90;;;;;;5076348;28;20284;-83
2022/10/18 15:26:08;;;;;;;7.27;2.40;;;19.50;99.90;;;;;;5079736;28;20180;-83
2022/10/18 15:28:39;;;;;;;5.23;2.50;;;19.30;99.90;;;;;;5076212;28;20182;-82
2022/10/18 15:31:05;;;;;;;5.10;2.40;;;19.30;99.90;;;;;;5076183;28;20186;-82
2022/10/18 15:33:34;;;;;;;5.20;1.87;;;19.20;99.90;;;;;;5076087;28;20216;-84
2022/10/18 15:36:16;;;;;;;8.03;2.77;;;19.20;99.90;;;;;;5076465;28;20183;-84
2022/10/18 15:38:42;;;;;;;8.97;2.30;;;19.10;99.90;;;;;;5077054;28;20200;-84
2022/10/18 15:41:38;;;;;;;9.83;2.40;;;19.10;99.90;;;;;;5076493;28;20177;-84
2022/10/18 15:44:23;;;;;;;6.70;2.40;;;19.10;99.90;;;;;;5078228;28;20205;-86
2022/10/18 15:46:51;;;;;;;8.17;2.47;;;19.10;99.90;;;;;;5077140;28;20165;-85
2022/10/18 15:49:23;;;;;;;8.10;2.53;;;19.00;99.90;;;;;;5075604;28;20634;-82
2022/10/18 15:52:10;;;;;;;9.43;3.23;;;18.90;99.90;;;;;;5076292;28;20270;-84
2022/10/18 15:54:37;;;;;;;9.93;2.70;;;18.90;99.90;;;;;;5075677;28;20179;-83
2022/10/18 15:57:09;;;;;;;13.33;5.27;;;18.90;99.90;;;;;;5079525;28;20259;-83
2022/10/18 15:59:37;;;;;;;78.40;49.43;;;18.70;99.90;;;;;;5080810;28;20195;-81
2022/10/18 16:02:02;;;;;;;16.03;6.43;;;18.70;99.90;;;;;;5079673;28;20710;-83
2022/10/18 16:04:31;;;;;;;12.83;5.57;;;18.70;99.90;;;;;;5079821;28;20199;-81
2022/10/18 16:06:58;;;;;;;8.97;3.63;;;18.60;99.90;;;;;;5081439;28;20559;-81
2022/10/18 16:09:27;;;;;;;11.10;3.97;;;18.60;99.90;;;;;;5080450;28;20255;-83
2022/10/18 16:11:52;;;;;;;11.27;3.13;;;18.50;99.90;;;;;;5080359;28;20176;-83
2022/10/18 16:14:19;;;;;;;7.63;3.80;;;18.40;99.90;;;;;;5080235;28;20182;-85
2022/10/18 16:16:46;;;;;;;19.63;3.93;;;18.30;99.90;;;;;;5080400;28;20269;-84
2022/10/18 16:19:20;;;;;;;9.67;4.90;;;18.10;99.90;;;;;;5080201;28;20205;-84
2022/10/18 16:21:46;;;;;;;17.17;4.87;;;18.10;99.90;;;;;;5082149;28;20166;-84
2022/10/18 16:24:11;;;;;;;11.97;4.00;;;18.00;99.90;;;;;;5082816;28;20198;-82
2022/10/18 16:26:37;;;;;;;6.63;3.47;;;17.90;99.90;;;;;;5081676;28;20707;-83
2022/10/18 16:29:03;;;;;;;7.40;3.57;;;17.70;99.90;;;;;;5081259;28;20194;-85
2022/10/18 16:31:32;;;;;;;13.47;3.67;;;17.70;99.90;;;;;;5083230;28;20245;-86
2022/10/18 16:33:58;;;;;;;9.77;3.70;;;17.60;99.90;;;;;;5082871;28;20198;-84
2022/10/18 16:36:30;;;;;;;8.47;3.27;;;17.50;99.90;;;;;;5084245;28;20178;-83
2022/10/18 16:38:57;;;;;;;10.07;3.50;;;17.40;99.90;;;;;;5087579;28;20200;-85
2022/10/18 16:41:23;;;;;;;8.67;4.10;;;17.30;99.90;;;;;;5093706;28;20206;-82
2022/10/18 16:43:50;;;;;;;9.50;3.83;;;17.20;99.90;;;;;;5095138;28;20216;-85
2022/10/18 16:46:18;;;;;;;5.83;3.57;;;17.10;99.90;;;;;;5083573;28;20185;-85
2022/10/18 16:48:45;;;;;;;8.17;4.33;;;17.00;99.90;;;;;;5084209;28;20190;-85
2022/10/18 16:51:11;;;;;;;13.10;4.70;;;16.90;99.90;;;;;;5085055;28;20180;-86
2022/10/18 16:53:37;;;;;;;10.37;4.37;;;16.90;99.90;;;;;;5083706;28;20189;-83
2022/10/18 16:56:05;;;;;;;7.87;4.27;;;16.80;99.90;;;;;;5085191;28;20179;-84
2022/10/18 16:58:31;;;;;;;8.47;5.50;;;16.80;99.90;;;;;;5084898;28;20256;-85
2022/10/18 17:00:58;;;;;;;10.87;4.30;;;16.70;99.90;;;;;;5082614;28;20268;-83
2022/10/18 17:03:25;;;;;;;9.97;3.80;;;16.80;99.90;;;;;;5079929;28;20189;-83
2022/10/18 17:05:51;;;;;;;10.13;3.40;;;16.80;99.90;;;;;;5079554;28;20209;-82
2022/10/18 17:08:26;;;;;;;6.20;3.10;;;16.80;99.90;;;;;;5079486;28;20245;-83
2022/10/18 17:10:54;;;;;;;5.87;3.20;;;16.80;99.90;;;;;;5080777;28;20154;-83
2022/10/18 17:13:21;;;;;;;7.77;4.00;;;16.80;99.90;;;;;;5079512;28;20181;-83
2022/10/18 17:15:47;;;;;;;10.23;5.57;;;16.80;99.90;;;;;;5079563;28;20273;-84
2022/10/18 17:18:16;;;;;;;15.47;9.17;;;16.80;99.90;;;;;;5080747;28;20182;-84
2022/10/18 17:20:43;;;;;;;10.30;6.60;;;16.80;99.90;;;;;;5079235;28;20201;-82
2022/10/18 17:23:09;;;;;;;9.20;6.50;;;16.80;99.90;;;;;;5078752;28;20748;-83
2022/10/18 17:25:36;;;;;;;8.53;4.73;;;16.80;99.90;;;;;;5079682;28;20201;-84
2022/10/18 17:28:03;;;;;;;21.07;11.37;;;16.80;99.90;;;;;;5083212;28;20536;-84
2022/10/18 17:30:29;;;;;;;17.80;7.80;;;16.90;99.90;;;;;;5080268;28;20285;-84
2022/10/18 17:32:55;;;;;;;10.77;5.17;;;16.80;99.90;;;;;;5081071;28;20635;-84
2022/10/18 17:35:20;;;;;;;5.33;3.70;;;16.90;99.90;;;;;;5079802;28;20201;-83
2022/10/18 17:37:53;;;;;;;7.33;4.70;;;16.90;99.90;;;;;;5080107;28;20182;-82
2022/10/18 17:40:22;;;;;;;11.57;5.33;;;16.80;99.90;;;;;;5079345;28;20207;-81
2022/10/18 17:42:49;;;;;;;10.83;6.80;;;16.60;99.90;;;;;;5077968;28;20187;-80
2022/10/18 17:45:15;;;;;;;10.27;5.03;;;16.50;99.90;;;;;;5077690;28;20245;-81
2022/10/18 17:47:40;;;;;;;7.77;4.57;;;16.30;99.90;;;;;;5079700;28;20173;-79
2022/10/18 17:50:06;;;;;;;7.13;4.30;;;16.20;99.90;;;;;;5078464;28;20204;-81
2022/10/18 17:52:32;;;;;;;8.67;4.20;;;16.10;99.90;;;;;;5080992;28;20213;-81
2022/10/18 17:54:57;;;;;;;8.57;4.40;;;16.00;99.90;;;;;;5080883;28;20182;-79
2022/10/18 17:57:23;;;;;;;9.10;4.90;;;16.00;99.90;;;;;;5079365;28;20182;-81
2022/10/18 17:59:49;;;;;;;10.53;6.83;;;16.00;99.90;;;;;;5080094;28;20319;-81
2022/10/18 18:02:14;;;;;;;31.07;15.80;;;16.00;99.90;;;;;;5081654;28;20174;-82
2022/10/18 18:04:40;;;;;;;21.57;11.13;;;15.90;99.90;;;;;;5080072;28;20242;-81
2022/10/18 18:07:06;;;;;;;12.03;7.43;;;15.90;99.90;;;;;;5080339;28;20604;-81
2022/10/18 18:09:31;;;;;;;7.23;5.17;;;15.90;99.90;;;;;;5080793;28;20197;-81
2022/10/18 18:11:57;;;;;;;8.93;5.30;;;15.90;99.90;;;;;;5079590;28;20531;-80
2022/10/18 18:14:23;;;;;;;9.57;5.20;;;15.90;99.90;;;;;;5078617;28;20180;-82
2022/10/18 18:16:49;;;;;;;10.47;5.47;;;15.90;99.90;;;;;;5079047;28;20188;-81
2022/10/18 18:19:18;;;;;;;7.77;5.30;;;16.00;99.90;;;;;;5078723;28;20208;-82
2022/10/18 18:21:45;;;;;;;12.63;5.27;;;16.00;99.90;;;;;;5079327;28;20643;-82
2022/10/18 18:24:12;;;;;;;14.63;5.83;;;16.00;99.90;;;;;;5081700;28;20205;-80
2022/10/18 18:26:39;;;;;;;9.53;6.20;;;16.00;99.90;;;;;;5081514;28;20180;-81
2022/10/18 18:29:05;;;;;;;10.17;6.27;;;16.00;99.90;;;;;;5079981;28;20682;-80
2022/10/18 18:31:31;;;;;;;16.77;8.90;;;16.00;99.90;;;;;;5078947;28;20177;-82
2022/10/18 18:33:57;;;;;;;10.27;6.57;;;16.00;99.90;;;;;;5079380;28;20196;-81
2022/10/18 18:36:27;;;;;;;14.87;7.67;;;16.00;99.90;;;;;;5078769;28;20182;-80
2022/10/18 18:38:54;;;;;;;14.53;7.60;;;16.00;99.90;;;;;;5079588;28;20279;-81
2022/10/18 18:41:24;;;;;;;33.83;22.63;;;16.00;99.90;;;;;;5078577;28;20257;-79
2022/10/18 18:43:52;;;;;;;25.37;17.07;;;16.00;99.90;;;;;;5080797;28;20225;-80
2022/10/18 18:46:19;;;;;;;22.23;11.47;;;16.00;99.90;;;;;;5079057;28;20181;-80
2022/10/18 18:48:45;;;;;;;17.37;11.67;;;16.00;99.90;;;;;;5080999;28;20196;-83
2022/10/18 18:51:16;;;;;;;13.03;8.57;;;16.00;99.90;;;;;;5080355;28;20196;-81
2022/10/18 18:53:43;;;;;;;15.47;8.43;;;15.90;99.90;;;;;;5079715;28;20185;-80
2022/10/18 18:56:15;;;;;;;15.13;8.03;;;15.90;99.90;;;;;;5080417;28;20180;-80
2022/10/18 18:58:42;;;;;;;12.17;7.83;;;15.90;99.90;;;;;;5081165;28;20552;-81
2022/10/18 19:01:11;;;;;;;12.57;8.53;;;15.80;99.90;;;;;;5081065;28;20273;-82
2022/10/18 19:03:38;;;;;;;11.90;8.57;;;15.80;99.90;;;;;;5081618;28;20181;-80
2022/10/18 19:06:07;;;;;;;9.20;7.37;;;15.80;99.90;;;;;;5082076;28;20536;-81
2022/10/18 19:08:37;;;;;;;11.97;8.10;;;15.80;99.90;;;;;;5082219;28;20628;-83
2022/10/18 19:11:04;;;;;;;19.30;11.10;;;15.80;99.90;;;;;;5084404;28;20789;-82
2022/10/18 19:13:29;;;;;;;15.00;10.90;;;15.80;99.90;;;;;;5088733;28;20185;-83
2022/10/18 19:16:17;;;;;;;12.37;8.30;;;15.80;99.90;;;;;;5094700;28;20182;-82
2022/10/18 19:18:49;;;;;;;11.10;8.13;;;15.70;99.90;;;;;;5093363;28;20205;-82
2022/10/18 19:21:15;;;;;;;10.23;6.80;;;15.70;99.90;;;;;;5090837;28;20256;-81
2022/10/18 19:23:40;;;;;;;9.67;6.37;;;15.70;99.90;;;;;;5080515;28;20225;-80
2022/10/18 19:26:19;;;;;;;10.57;6.13;;;15.60;99.90;;;;;;5078339;28;20177;-82
2022/10/18 19:28:45;;;;;;;11.23;7.23;;;15.50;99.90;;;;;;5079347;28;20599;-82
2022/10/18 19:31:10;;;;;;;13.97;6.47;;;15.50;99.90;;;;;;5078669;28;20212;-82
2022/10/18 19:33:36;;;;;;;9.97;6.47;;;15.40;99.90;;;;;;5078082;28;20193;-80
2022/10/18 19:36:02;;;;;;;11.47;6.50;;;15.40;99.90;;;;;;5076196;28;20169;-80
2022/10/18 19:38:28;;;;;;;8.40;6.80;;;15.40;99.90;;;;;;5076662;28;20195;-82
2022/10/18 19:40:54;;;;;;;15.57;7.63;;;15.40;99.90;;;;;;5076104;28;20213;-81
2022/10/18 19:43:19;;;;;;;14.30;9.53;;;15.40;99.90;;;;;;5076315;28;20207;-81
2022/10/18 19:45:45;;;;;;;15.63;10.10;;;15.40;99.90;;;;;;5075831;28;20213;-81
2022/10/18 19:48:11;;;;;;;17.83;10.67;;;15.50;99.90;;;;;;5073050;28;20635;-81
2022/10/18 19:50:36;;;;;;;16.77;10.80;;;15.50;99.90;;;;;;5073728;28;20198;-81
2022/10/18 19:53:02;;;;;;;16.77;10.93;;;15.40;99.90;;;;;;5074314;28;20208;-81
2022/10/18 19:55:28;;;;;;;19.27;13.20;;;15.40;99.90;;;;;;5073899;28;20559;-82
2022/10/18 19:57:54;;;;;;;21.07;13.83;;;15.40;99.90;;;;;;5076057;28;20578;-81
2022/10/18 20:00:19;;;;;;;24.37;16.20;;;15.40;99.90;;;;;;5073976;28;20210;-81
2022/10/18 20:02:45;;;;;;;20.83;12.47;;;15.40;99.90;;;;;;5076152;28;20249;-79
2022/10/18 20:05:10;;;;;;;19.87;13.90;;;15.40;99.90;;;;;;5073925;28;20206;-80
2022/10/18 20:07:36;;;;;;;29.10;17.80;;;15.40;99.90;;;;;;5074188;28;20228;-80
2022/10/18 20:10:03;;;;;;;21.30;14.10;;;15.40;99.90;;;;;;5073982;28;20201;-80
2022/10/18 20:12:29;;;;;;;14.77;10.77;;;15.40;99.90;;;;;;5074967;28;20170;-80
2022/10/18 20:14:54;;;;;;;16.00;9.90;;;15.40;99.90;;;;;;5075546;28;20662;-80